Time;durP1;ratioP1;P1;durP2;ratioP2;P2;SDS_P1;SDS_P2;PMS_P1;PMS_P2;Temp;Humidity;BMP_temperature;BMP_pressure;BME280_temperature;BME280_humidity;BME280_pressure;Samples;Min_cycle;Max_cycle;Signal;HPM_P1;HPM_P2
2023/04/29 00:01:35;;;;;;;2.90;2.70;;;13.00;99.90;;;;;;5000874;28;20207;-71
2023/04/29 00:04:02;;;;;;;3.35;3.15;;;12.90;99.90;;;;;;4995602;28;20223;-70
2023/04/29 00:06:31;;;;;;;3.10;2.90;;;12.90;99.90;;;;;;4996763;28;20201;-70
2023/04/29 00:08:58;;;;;;;3.40;3.20;;;12.90;99.90;;;;;;4984238;28;20212;-70
2023/04/29 00:11:25;;;;;;;2.95;2.70;;;12.90;99.90;;;;;;4999677;28;20228;-70
2023/04/29 00:13:52;;;;;;;2.80;2.60;;;12.90;99.90;;;;;;4997808;28;20311;-70
2023/04/29 00:16:20;;;;;;;3.38;3.10;;;12.90;99.90;;;;;;4981143;28;20212;-70
2023/04/29 00:18:47;;;;;;;3.10;2.90;;;12.90;99.90;;;;;;4997322;28;20213;-70
2023/04/29 00:21:14;;;;;;;3.13;2.83;;;12.90;99.90;;;;;;4998247;28;20757;-70
2023/04/29 00:23:42;;;;;;;2.80;2.60;;;12.90;99.90;;;;;;4999696;28;20311;-70
2023/04/29 00:26:10;;;;;;;3.08;2.88;;;12.90;99.90;;;;;;4983240;28;20835;-70
2023/04/29 00:28:37;;;;;;;3.30;3.10;;;12.90;99.90;;;;;;5000366;28;20219;-70
2023/04/29 00:31:04;;;;;;;3.22;2.97;;;12.90;99.90;;;;;;4998753;28;20224;-70
2023/04/29 00:33:32;;;;;;;3.50;3.30;;;12.90;99.90;;;;;;5000084;28;20279;-70
2023/04/29 00:35:59;;;;;;;3.42;2.90;;;12.90;99.90;;;;;;5001690;28;20212;-70
2023/04/29 00:38:25;;;;;;;3.13;2.90;;;12.90;99.90;;;;;;5009032;28;20323;-70
2023/04/29 00:40:55;;;;;;;3.85;3.30;;;12.90;99.90;;;;;;5007210;28;20712;-70
2023/04/29 00:43:23;;;;;;;3.30;3.10;;;12.80;99.90;;;;;;5002392;28;20271;-70
2023/04/29 00:45:50;;;;;;;3.58;3.28;;;12.80;99.90;;;;;;5001635;28;20289;-70
2023/04/29 00:48:17;;;;;;;3.58;3.38;;;12.80;99.90;;;;;;5006173;28;20228;-70
2023/04/29 00:50:44;;;;;;;3.83;3.53;;;12.70;99.90;;;;;;5003022;28;20296;-70
2023/04/29 00:53:12;;;;;;;3.20;3.00;;;12.70;99.90;;;;;;5002439;28;20303;-69
2023/04/29 00:55:40;;;;;;;3.30;2.90;;;12.70;99.90;;;;;;4997120;28;20621;-71
2023/04/29 00:58:10;;;;;;;2.95;2.75;;;12.70;99.90;;;;;;5000105;28;20262;-71
2023/04/29 01:00:38;;;;;;;3.10;2.90;;;12.70;99.90;;;;;;4999616;28;20299;-71
2023/04/29 01:03:06;;;;;;;3.10;2.90;;;12.80;99.90;;;;;;5002314;28;20225;-71
2023/04/29 01:05:34;;;;;;;3.58;3.28;;;12.80;99.90;;;;;;4998977;28;20742;-71
2023/04/29 01:08:14;;;;;;;3.55;3.25;;;12.80;99.90;;;;;;4984483;28;20295;-71
2023/04/29 01:10:49;;;;;;;3.97;3.67;;;12.70;99.90;;;;;;4998154;28;20302;-71
2023/04/29 01:13:29;;;;;;;3.50;3.20;;;12.70;99.90;;;;;;4983492;28;20315;-71
2023/04/29 01:16:02;;;;;;;3.45;3.20;;;12.70;99.90;;;;;;4998249;28;20244;-72
2023/04/29 01:18:33;;;;;;;4.00;3.70;;;12.80;99.90;;;;;;5002867;28;20219;-72
2023/04/29 01:21:01;;;;;;;3.63;3.33;;;12.80;99.90;;;;;;5002129;28;20212;-71
2023/04/29 01:23:30;;;;;;;3.10;2.90;;;12.80;99.90;;;;;;4999985;28;20282;-71
2023/04/29 01:25:57;;;;;;;3.42;3.22;;;12.70;99.90;;;;;;4983704;28;20209;-71
2023/04/29 01:28:38;;;;;;;3.10;2.90;;;12.70;99.90;;;;;;5001105;28;20642;-71
2023/04/29 01:31:08;;;;;;;3.42;3.17;;;12.70;99.90;;;;;;5002131;28;20381;-71
2023/04/29 01:33:44;;;;;;;3.10;2.90;;;12.70;99.90;;;;;;5000830;28;20235;-72
2023/04/29 01:36:21;;;;;;;3.63;3.33;;;12.60;99.90;;;;;;5000549;28;20250;-71
2023/04/29 01:38:57;;;;;;;3.53;3.28;;;12.60;99.90;;;;;;4995580;28;20781;-72
2023/04/29 01:41:35;;;;;;;3.70;3.20;;;12.50;99.90;;;;;;4998937;28;20212;-72
2023/04/29 01:44:04;;;;;;;3.70;3.40;;;12.50;99.90;;;;;;4998309;28;21268;-71
2023/04/29 01:46:32;;;;;;;4.18;3.70;;;12.50;99.90;;;;;;4983472;28;20296;-71
2023/04/29 01:48:59;;;;;;;3.42;3.22;;;12.40;99.90;;;;;;5003547;28;20279;-71
2023/04/29 01:51:27;;;;;;;4.05;3.75;;;12.30;99.90;;;;;;4983414;28;20212;-70
2023/04/29 01:53:56;;;;;;;3.83;3.47;;;12.30;99.90;;;;;;5001874;28;20291;-71
2023/04/29 01:56:23;;;;;;;3.45;3.25;;;12.30;99.90;;;;;;4996732;28;20204;-71
2023/04/29 01:58:50;;;;;;;3.38;3.13;;;12.20;99.90;;;;;;4996073;28;20316;-71
2023/04/29 02:01:17;;;;;;;4.25;3.85;;;12.20;99.90;;;;;;5000427;28;20200;-70
2023/04/29 02:03:45;;;;;;;4.07;3.70;;;12.10;99.90;;;;;;5000541;28;20220;-71
2023/04/29 02:06:12;;;;;;;3.38;3.08;;;12.00;99.90;;;;;;4990341;28;20204;-71
2023/04/29 02:08:39;;;;;;;4.13;3.83;;;12.00;99.90;;;;;;5024822;28;20246;-71
2023/04/29 02:11:07;;;;;;;3.63;3.42;;;12.00;99.90;;;;;;5012626;28;20286;-71
2023/04/29 02:13:35;;;;;;;3.13;2.92;;;12.00;99.90;;;;;;4987447;28;20227;-71
2023/04/29 02:16:08;;;;;;;3.63;3.33;;;12.00;99.90;;;;;;4999882;28;20284;-70
2023/04/29 02:18:35;;;;;;;5.28;3.38;;;12.00;99.90;;;;;;5003265;28;20202;-70
2023/04/29 02:21:02;;;;;;;3.42;3.22;;;12.00;99.90;;;;;;4999666;28;20304;-70
2023/04/29 02:23:30;;;;;;;3.65;3.35;;;12.00;99.90;;;;;;4998895;28;20298;-71
2023/04/29 02:25:57;;;;;;;3.45;3.10;;;12.00;99.90;;;;;;4998050;28;20196;-70
2023/04/29 02:28:25;;;;;;;3.05;2.85;;;12.00;99.90;;;;;;4999312;28;20216;-70
2023/04/29 02:30:53;;;;;;;3.97;3.60;;;12.10;99.90;;;;;;4980776;28;20251;-71
2023/04/29 02:33:20;;;;;;;3.78;3.50;;;12.10;99.90;;;;;;4997234;28;20233;-70
2023/04/29 02:35:47;;;;;;;4.18;3.83;;;12.10;99.90;;;;;;4997416;28;20207;-70
2023/04/29 02:38:14;;;;;;;4.25;3.95;;;12.10;99.90;;;;;;5002398;28;20204;-70
2023/04/29 02:40:42;;;;;;;4.40;4.10;;;12.10;99.90;;;;;;4997457;28;20307;-71
2023/04/29 02:43:09;;;;;;;4.30;4.00;;;11.90;99.90;;;;;;4996766;28;20235;-70
2023/04/29 02:45:38;;;;;;;4.25;3.95;;;11.80;99.90;;;;;;4993879;28;20900;-71
2023/04/29 02:48:06;;;;;;;4.55;4.20;;;11.80;99.90;;;;;;4998652;28;20838;-70
2023/04/29 02:50:33;;;;;;;3.60;3.30;;;11.80;99.90;;;;;;4998861;28;21047;-70
2023/04/29 02:53:00;;;;;;;4.35;4.05;;;11.80;99.90;;;;;;4980770;28;20781;-70
2023/04/29 02:55:27;;;;;;;4.22;3.90;;;11.70;99.90;;;;;;4995899;28;20633;-71
2023/04/29 02:57:54;;;;;;;3.80;3.60;;;11.70;99.90;;;;;;4999442;28;20282;-70
2023/04/29 03:00:22;;;;;;;3.80;3.50;;;11.70;99.90;;;;;;4997267;28;20331;-71
2023/04/29 03:02:51;;;;;;;4.25;3.95;;;11.70;99.90;;;;;;4996353;28;20306;-70
2023/04/29 03:05:18;;;;;;;4.13;3.83;;;11.70;99.90;;;;;;4994233;28;20232;-71
2023/04/29 03:07:45;;;;;;;3.72;3.53;;;11.60;99.90;;;;;;4997375;28;20235;-70
2023/04/29 03:10:12;;;;;;;4.30;3.90;;;11.60;99.90;;;;;;4980499;28;20284;-71
2023/04/29 03:12:39;;;;;;;4.05;3.75;;;11.70;99.90;;;;;;4978084;28;20315;-71
2023/04/29 03:15:09;;;;;;;3.60;3.30;;;11.60;99.90;;;;;;4997093;28;20239;-71
2023/04/29 03:17:36;;;;;;;4.32;3.95;;;11.60;99.90;;;;;;4997054;28;20231;-70
2023/04/29 03:20:06;;;;;;;3.65;3.42;;;11.50;99.90;;;;;;4998480;28;20212;-70
2023/04/29 03:22:33;;;;;;;3.67;3.47;;;11.50;99.90;;;;;;4999668;28;20224;-71
2023/04/29 03:25:00;;;;;;;4.03;3.70;;;11.40;99.90;;;;;;4998977;28;20233;-70
2023/04/29 03:27:28;;;;;;;3.30;3.10;;;11.40;99.90;;;;;;4999993;28;20853;-70
2023/04/29 03:29:54;;;;;;;4.65;4.25;;;11.40;99.90;;;;;;4995956;28;20231;-71
2023/04/29 03:32:21;;;;;;;3.65;3.35;;;11.50;99.90;;;;;;4985361;28;20216;-71
2023/04/29 03:34:49;;;;;;;4.47;4.07;;;11.50;99.90;;;;;;5000134;28;20223;-70
2023/04/29 03:37:17;;;;;;;3.90;3.58;;;11.50;99.90;;;;;;4999784;28;20278;-71
2023/04/29 03:39:44;;;;;;;4.10;3.80;;;11.50;99.90;;;;;;4983423;28;20230;-71
2023/04/29 03:42:12;;;;;;;4.90;4.45;;;11.50;99.90;;;;;;4995498;28;20312;-71
2023/04/29 03:44:39;;;;;;;5.15;4.65;;;11.50;99.90;;;;;;4993453;28;20691;-71
2023/04/29 03:47:07;;;;;;;5.07;4.68;;;11.40;99.90;;;;;;4995601;28;20228;-71
2023/04/29 03:49:34;;;;;;;4.20;3.90;;;11.40;99.90;;;;;;4995200;28;20188;-71
2023/04/29 03:52:02;;;;;;;4.22;3.92;;;11.40;99.90;;;;;;4997822;28;20204;-71
2023/04/29 03:54:31;;;;;;;4.47;4.18;;;11.40;99.90;;;;;;4999109;28;20290;-71
2023/04/29 03:56:58;;;;;;;4.75;4.35;;;11.50;99.90;;;;;;4999203;28;20703;-71
2023/04/29 03:59:25;;;;;;;4.22;3.92;;;11.50;99.90;;;;;;4996612;28;20306;-71
2023/04/29 04:01:53;;;;;;;4.00;3.70;;;11.50;99.90;;;;;;4999724;28;20294;-71
2023/04/29 04:04:20;;;;;;;4.60;4.18;;;11.50;99.90;;;;;;5003266;28;20265;-70
2023/04/29 04:06:50;;;;;;;4.55;4.15;;;11.50;99.90;;;;;;5004718;28;20211;-70
2023/04/29 04:09:17;;;;;;;4.55;4.15;;;11.50;99.90;;;;;;5005432;28;20212;-70
2023/04/29 04:11:46;;;;;;;4.25;3.85;;;11.60;99.90;;;;;;4984941;28;20713;-70
2023/04/29 04:14:13;;;;;;;4.68;4.32;;;11.60;99.90;;;;;;5005963;28;20224;-70
2023/04/29 04:16:40;;;;;;;5.63;5.22;;;11.60;99.90;;;;;;5003101;28;20692;-71
2023/04/29 04:19:07;;;;;;;6.13;5.63;;;11.60;99.90;;;;;;4997314;28;20616;-70
2023/04/29 04:21:35;;;;;;;5.22;4.82;;;11.60;99.90;;;;;;4999513;28;20228;-71
2023/04/29 04:24:02;;;;;;;4.70;4.30;;;11.60;99.90;;;;;;4987235;28;20224;-71
2023/04/29 04:26:29;;;;;;;4.65;4.25;;;11.60;99.90;;;;;;5000850;28;20625;-70
2023/04/29 04:28:57;;;;;;;4.30;3.95;;;11.60;99.90;;;;;;4997830;28;20721;-71
2023/04/29 04:31:24;;;;;;;4.00;3.72;;;11.60;99.90;;;;;;4986519;28;20219;-71
2023/04/29 04:33:51;;;;;;;4.40;4.00;;;11.70;99.90;;;;;;5009084;28;20259;-70
2023/04/29 04:36:18;;;;;;;4.38;4.07;;;11.70;99.90;;;;;;5009975;28;20220;-70
2023/04/29 04:38:45;;;;;;;4.38;4.05;;;11.70;99.90;;;;;;5001949;28;20228;-71
2023/04/29 04:41:12;;;;;;;4.15;3.85;;;11.70;99.90;;;;;;5000395;28;20310;-70
2023/04/29 04:43:40;;;;;;;4.47;4.18;;;11.70;99.90;;;;;;4985574;28;20396;-70
2023/04/29 04:46:13;;;;;;;3.92;3.63;;;11.70;99.90;;;;;;5002134;28;20220;-71
2023/04/29 04:48:40;;;;;;;4.53;4.22;;;11.70;99.90;;;;;;5000616;28;20295;-70
2023/04/29 04:51:11;;;;;;;3.83;3.53;;;11.70;99.90;;;;;;4983853;28;20263;-70
2023/04/29 04:53:39;;;;;;;4.47;4.18;;;11.70;99.90;;;;;;5002064;28;20228;-71
2023/04/29 04:56:07;;;;;;;4.38;4.07;;;11.80;99.90;;;;;;4981861;28;20227;-70
2023/04/29 04:58:34;;;;;;;4.65;3.92;;;11.80;99.90;;;;;;5013279;28;20235;-70
2023/04/29 05:01:01;;;;;;;4.35;3.95;;;11.80;99.90;;;;;;5021229;28;20216;-70
2023/04/29 05:03:30;;;;;;;4.22;3.92;;;11.80;99.90;;;;;;5004299;28;20312;-70
2023/04/29 05:05:57;;;;;;;4.25;3.85;;;11.90;99.90;;;;;;4998696;28;20663;-70
2023/04/29 05:08:25;;;;;;;3.83;3.53;;;11.90;99.90;;;;;;4998824;28;20247;-71
2023/04/29 05:10:52;;;;;;;4.15;3.80;;;12.00;99.90;;;;;;5000915;28;20209;-71
2023/04/29 05:13:19;;;;;;;4.28;3.97;;;12.00;99.90;;;;;;5003417;28;20315;-71
2023/04/29 05:15:47;;;;;;;4.07;3.83;;;12.00;99.90;;;;;;4982260;28;20331;-70
2023/04/29 05:18:14;;;;;;;4.03;3.70;;;12.10;99.90;;;;;;4980064;28;20719;-71
2023/04/29 05:20:42;;;;;;;3.97;3.67;;;12.10;99.90;;;;;;5001468;28;20251;-71
2023/04/29 05:23:10;;;;;;;3.95;3.65;;;12.10;99.90;;;;;;4999812;28;20278;-71
2023/04/29 05:25:37;;;;;;;4.28;3.97;;;12.10;99.90;;;;;;5000203;28;20284;-71
2023/04/29 05:28:04;;;;;;;3.50;3.22;;;12.10;99.90;;;;;;4998707;28;20236;-71
2023/04/29 05:30:31;;;;;;;4.55;4.25;;;12.10;99.90;;;;;;5003193;28;20192;-70
2023/04/29 05:32:58;;;;;;;4.35;3.95;;;12.10;99.90;;;;;;5001013;28;20316;-71
2023/04/29 05:35:25;;;;;;;4.20;3.90;;;12.00;99.90;;;;;;4999293;28;20244;-70
2023/04/29 05:37:54;;;;;;;4.72;4.32;;;12.00;99.90;;;;;;4981332;28;20208;-71
2023/04/29 05:40:22;;;;;;;4.22;3.92;;;12.10;99.90;;;;;;4996151;28;20251;-70
2023/04/29 05:42:49;;;;;;;4.82;4.43;;;12.20;99.90;;;;;;4998317;28;20747;-71
2023/04/29 05:45:16;;;;;;;3.97;3.67;;;12.20;99.90;;;;;;4999244;28;21087;-71
2023/04/29 05:47:43;;;;;;;4.75;4.35;;;12.40;99.90;;;;;;4984420;28;20936;-71
2023/04/29 05:50:11;;;;;;;4.38;4.07;;;12.40;99.90;;;;;;5001590;28;20262;-71
2023/04/29 05:52:39;;;;;;;4.43;4.13;;;12.50;99.90;;;;;;5000221;28;20228;-70
2023/04/29 05:55:08;;;;;;;4.22;3.92;;;12.60;99.90;;;;;;4999230;28;20232;-70
2023/04/29 05:57:35;;;;;;;3.88;3.58;;;12.60;99.90;;;;;;4997968;28;20251;-70
2023/04/29 06:00:03;;;;;;;4.68;4.38;;;12.60;99.90;;;;;;4998194;28;20317;-69
2023/04/29 06:02:30;;;;;;;4.68;4.38;;;12.60;99.90;;;;;;5000321;28;20302;-67
2023/04/29 06:04:57;;;;;;;4.05;3.75;;;12.60;99.90;;;;;;4979451;28;20219;-67
2023/04/29 06:07:25;;;;;;;4.85;4.45;;;12.60;99.90;;;;;;4998970;28;20232;-67
2023/04/29 06:09:53;;;;;;;4.47;4.07;;;12.60;99.90;;;;;;5005722;28;20200;-67
2023/04/29 06:12:22;;;;;;;4.38;4.05;;;12.60;99.90;;;;;;5001021;28;20224;-67
2023/04/29 06:14:49;;;;;;;5.65;5.18;;;12.60;99.90;;;;;;4997681;28;20244;-67
2023/04/29 06:17:16;;;;;;;5.03;4.63;;;12.60;99.90;;;;;;4997011;28;20203;-67
2023/04/29 06:19:43;;;;;;;4.53;4.22;;;12.60;99.90;;;;;;5001280;28;20301;-67
2023/04/29 06:22:10;;;;;;;4.35;4.05;;;12.60;99.90;;;;;;5001890;28;20709;-68
2023/04/29 06:24:38;;;;;;;4.38;4.07;;;12.60;99.90;;;;;;4997020;28;20621;-68
2023/04/29 06:27:05;;;;;;;5.65;5.18;;;12.70;99.90;;;;;;4997525;28;20321;-67
2023/04/29 06:29:33;;;;;;;4.80;4.32;;;12.80;99.90;;;;;;5003883;28;20846;-68
2023/04/29 06:32:01;;;;;;;4.38;4.07;;;12.90;99.90;;;;;;4997077;28;20324;-67
2023/04/29 06:34:28;;;;;;;5.28;4.85;;;13.00;99.90;;;;;;4996917;28;20200;-67
2023/04/29 06:36:55;;;;;;;4.90;4.50;;;13.00;99.90;;;;;;4997747;28;20279;-67
2023/04/29 06:39:22;;;;;;;4.18;3.88;;;13.00;99.90;;;;;;4999783;28;20240;-68
2023/04/29 06:41:50;;;;;;;4.85;4.45;;;13.00;99.90;;;;;;4999106;28;20251;-67
2023/04/29 06:44:18;;;;;;;4.85;4.45;;;13.00;99.90;;;;;;4998456;28;20211;-68
2023/04/29 06:46:46;;;;;;;4.90;4.50;;;13.00;99.90;;;;;;4997211;28;20204;-68
2023/04/29 06:49:13;;;;;;;4.85;4.35;;;13.10;99.90;;;;;;4998996;28;20697;-67
2023/04/29 06:51:41;;;;;;;4.10;3.80;;;13.10;99.90;;;;;;4995144;28;20236;-68
2023/04/29 06:54:08;;;;;;;4.70;4.30;;;13.20;99.90;;;;;;5000796;28;20258;-69
2023/04/29 06:56:35;;;;;;;4.70;4.38;;;13.20;99.90;;;;;;4996960;28;20204;-68
2023/04/29 06:59:03;;;;;;;4.28;3.92;;;13.30;99.90;;;;;;4977162;28;20205;-68
2023/04/29 07:01:30;;;;;;;4.78;4.38;;;13.30;99.90;;;;;;4991546;28;20211;-68
2023/04/29 07:03:58;;;;;;;4.35;4.03;;;13.40;99.90;;;;;;4996635;28;20312;-68
2023/04/29 07:06:26;;;;;;;4.30;4.00;;;13.40;99.90;;;;;;4998940;28;20259;-68
2023/04/29 07:08:52;;;;;;;4.70;4.32;;;13.40;99.90;;;;;;4998648;28;20197;-68
2023/04/29 07:11:20;;;;;;;4.63;4.30;;;13.50;99.90;;;;;;4998573;28;20673;-68
2023/04/29 07:13:47;;;;;;;8.07;5.72;;;13.50;99.90;;;;;;5000087;28;20224;-68
2023/04/29 07:16:19;;;;;;;5.63;5.13;;;13.40;99.90;;;;;;4996351;28;20232;-69
2023/04/29 07:18:46;;;;;;;5.22;4.82;;;13.40;99.90;;;;;;4999667;28;20201;-69
2023/04/29 07:21:15;;;;;;;4.70;4.30;;;13.40;99.90;;;;;;4994034;28;20266;-69
2023/04/29 07:23:42;;;;;;;4.50;4.10;;;13.40;99.90;;;;;;4999887;28;20224;-69
2023/04/29 07:26:10;;;;;;;4.60;4.30;;;13.40;99.90;;;;;;4993149;28;20662;-68
2023/04/29 07:28:37;;;;;;;4.20;3.90;;;13.50;99.90;;;;;;4984051;28;20215;-68
2023/04/29 07:31:05;;;;;;;3.90;3.60;;;13.60;99.90;;;;;;4994816;28;20744;-68
2023/04/29 07:33:32;;;;;;;5.03;4.63;;;13.80;99.90;;;;;;4996173;28;20225;-68
2023/04/29 07:35:59;;;;;;;4.75;4.38;;;14.10;99.90;;;;;;4998629;28;20744;-68
2023/04/29 07:38:28;;;;;;;5.40;5.00;;;14.40;99.90;;;;;;4997014;28;20240;-68
2023/04/29 07:40:55;;;;;;;5.22;4.82;;;14.60;99.90;;;;;;5002288;28;20232;-68
2023/04/29 07:43:22;;;;;;;4.90;4.50;;;14.80;99.90;;;;;;5004533;28;20566;-68
2023/04/29 07:45:50;;;;;;;5.03;4.63;;;15.00;99.90;;;;;;5005599;28;20291;-67
2023/04/29 07:48:16;;;;;;;4.95;4.55;;;15.10;99.90;;;;;;5004375;28;20259;-68
2023/04/29 07:50:44;;;;;;;4.38;3.97;;;15.10;99.90;;;;;;5003404;28;21012;-68
2023/04/29 07:53:11;;;;;;;4.57;4.18;;;15.20;99.90;;;;;;5011602;28;20243;-68
2023/04/29 07:55:39;;;;;;;4.85;4.43;;;15.20;99.90;;;;;;5017329;28;20444;-69
2023/04/29 07:58:07;;;;;;;5.22;4.72;;;15.20;99.90;;;;;;5007007;28;20204;-68
2023/04/29 08:00:34;;;;;;;5.93;5.53;;;15.30;99.90;;;;;;5004280;28;20303;-68
2023/04/29 08:03:01;;;;;;;5.30;4.90;;;15.20;99.90;;;;;;5005704;28;20251;-68
2023/04/29 08:05:29;;;;;;;5.38;4.88;;;15.20;99.90;;;;;;5004179;28;20287;-70
2023/04/29 08:07:56;;;;;;;4.70;4.35;;;15.10;99.90;;;;;;4985819;28;20202;-71
2023/04/29 08:10:23;;;;;;;4.45;4.00;;;15.00;99.90;;;;;;5000962;28;20232;-71
2023/04/29 08:12:51;;;;;;;5.63;4.47;;;15.20;99.90;;;;;;5001621;28;20315;-69
2023/04/29 08:15:19;;;;;;;5.32;4.85;;;15.20;99.90;;;;;;5001929;28;20235;-70
2023/04/29 08:17:46;;;;;;;4.63;4.22;;;15.20;99.90;;;;;;5003611;28;20208;-70
2023/04/29 08:20:14;;;;;;;4.40;4.10;;;15.20;99.90;;;;;;5000784;28;20228;-69
2023/04/29 08:22:41;;;;;;;5.28;4.78;;;15.30;99.90;;;;;;5001292;28;20230;-70
2023/04/29 08:25:09;;;;;;;5.50;4.88;;;15.40;99.90;;;;;;5001534;28;20275;-69
2023/04/29 08:27:36;;;;;;;5.85;5.40;;;15.40;99.90;;;;;;5003482;28;20271;-69
2023/04/29 08:30:06;;;;;;;5.47;4.97;;;15.50;99.90;;;;;;5000065;28;20263;-69
2023/04/29 08:32:34;;;;;;;5.78;4.97;;;15.40;99.90;;;;;;5001431;28;20259;-69
2023/04/29 08:35:01;;;;;;;6.72;6.05;;;15.40;99.90;;;;;;5003406;28;20201;-69
2023/04/29 08:37:28;;;;;;;7.35;6.47;;;15.40;99.90;;;;;;5007009;28;20299;-69
2023/04/29 08:39:55;;;;;;;5.78;5.28;;;15.50;99.90;;;;;;5001214;28;20239;-69
2023/04/29 08:42:33;;;;;;;5.57;5.03;;;15.60;99.90;;;;;;5004974;28;20271;-68
2023/04/29 08:45:01;;;;;;;5.82;5.32;;;15.80;99.90;;;;;;5012562;28;20200;-68
2023/04/29 08:47:30;;;;;;;6.40;5.90;;;15.90;99.90;;;;;;5002367;28;20556;-68
2023/04/29 08:50:01;;;;;;;5.55;5.10;;;16.00;99.90;;;;;;4996929;28;20295;-68
2023/04/29 08:52:28;;;;;;;5.65;4.80;;;16.10;99.90;;;;;;4994658;28;20923;-68
2023/04/29 08:54:56;;;;;;;6.05;5.55;;;16.20;99.90;;;;;;4999463;28;20196;-70
2023/04/29 08:57:24;;;;;;;5.75;4.80;;;16.30;99.90;;;;;;4997413;28;20212;-69
2023/04/29 08:59:52;;;;;;;5.45;4.95;;;16.50;99.90;;;;;;4997057;28;20643;-69
2023/04/29 09:02:21;;;;;;;5.43;4.97;;;16.70;99.90;;;;;;5001651;28;20760;-69
2023/04/29 09:04:58;;;;;;;4.60;4.20;;;16.90;99.90;;;;;;4999576;28;20204;-69
2023/04/29 09:07:25;;;;;;;4.25;3.90;;;17.00;99.90;;;;;;4999226;28;20200;-69
2023/04/29 09:09:53;;;;;;;5.25;4.75;;;17.20;99.90;;;;;;4986303;28;20211;-69
2023/04/29 09:12:21;;;;;;;6.05;4.75;;;17.30;99.90;;;;;;4999816;28;20225;-70
2023/04/29 09:14:48;;;;;;;4.28;3.92;;;17.30;99.90;;;;;;4981935;28;20295;-70
2023/04/29 09:17:17;;;;;;;4.68;4.28;;;17.40;99.90;;;;;;5003313;28;20236;-68
2023/04/29 09:19:45;;;;;;;4.70;4.30;;;17.50;99.90;;;;;;5000826;28;20866;-70
2023/04/29 09:22:13;;;;;;;4.85;4.35;;;17.60;99.90;;;;;;4999547;28;20247;-69
2023/04/29 09:24:42;;;;;;;5.15;4.75;;;17.90;99.90;;;;;;5001072;28;20894;-69
2023/04/29 09:27:10;;;;;;;4.35;4.05;;;18.20;99.90;;;;;;5002724;28;20227;-69
2023/04/29 09:29:38;;;;;;;5.00;4.60;;;18.40;99.90;;;;;;4998033;28;20240;-69
2023/04/29 09:32:20;;;;;;;6.28;4.70;;;18.60;99.90;;;;;;5002503;28;20998;-69
2023/04/29 09:34:47;;;;;;;4.82;4.32;;;18.80;99.90;;;;;;5001907;28;20262;-69
2023/04/29 09:37:26;;;;;;;4.35;4.03;;;18.80;99.90;;;;;;4998669;28;20737;-69
2023/04/29 09:39:54;;;;;;;3.97;3.67;;;18.70;99.90;;;;;;5002542;28;20291;-68
2023/04/29 09:42:21;;;;;;;3.90;3.60;;;18.80;99.90;;;;;;4984830;28;20220;-68
2023/04/29 09:44:48;;;;;;;3.97;3.67;;;18.90;99.90;;;;;;4981474;28;20204;-68
2023/04/29 09:47:16;;;;;;;4.22;3.92;;;19.00;99.90;;;;;;5000053;28;20201;-67
2023/04/29 09:49:44;;;;;;;3.85;3.47;;;19.30;99.90;;;;;;5000036;28;20230;-68
2023/04/29 09:52:13;;;;;;;4.68;3.30;;;19.40;99.90;;;;;;4998402;28;20270;-68
2023/04/29 09:54:43;;;;;;;4.65;3.72;;;19.30;99.90;;;;;;4983693;28;20239;-68
2023/04/29 09:57:11;;;;;;;3.50;3.20;;;19.40;99.90;;;;;;4995845;28;20287;-68
2023/04/29 09:59:39;;;;;;;3.03;2.83;;;19.40;99.90;;;;;;4998193;28;20295;-68
2023/04/29 10:02:14;;;;;;;3.65;3.35;;;19.60;99.90;;;;;;4998510;28;20314;-68
2023/04/29 10:04:42;;;;;;;4.13;3.10;;;19.80;99.90;;;;;;5002038;28;20218;-68
2023/04/29 10:07:11;;;;;;;4.18;3.30;;;20.10;99.90;;;;;;4995431;28;20197;-68
2023/04/29 10:09:41;;;;;;;3.50;3.22;;;20.10;99.90;;;;;;4995084;28;20293;-67
2023/04/29 10:12:09;;;;;;;2.90;2.70;;;20.10;99.90;;;;;;4999491;28;20216;-68
2023/04/29 10:14:45;;;;;;;3.13;2.88;;;20.20;99.90;;;;;;5000437;28;20204;-68
2023/04/29 10:17:19;;;;;;;4.38;3.97;;;20.40;99.90;;;;;;4997721;28;20200;-69
2023/04/29 10:20:00;;;;;;;4.15;3.83;;;20.40;99.90;;;;;;5000278;28;20207;-69
2023/04/29 10:22:34;;;;;;;3.35;2.90;;;20.60;99.90;;;;;;4997303;28;20771;-69
2023/04/29 10:25:06;;;;;;;3.70;3.22;;;20.60;99.90;;;;;;4995501;28;20197;-69
2023/04/29 10:27:34;;;;;;;3.75;3.47;;;20.50;99.90;;;;;;4999759;28;20725;-70
2023/04/29 10:30:03;;;;;;;3.60;3.30;;;20.40;99.90;;;;;;5000466;28;20204;-67
2023/04/29 10:32:32;;;;;;;3.40;3.10;;;20.30;99.90;;;;;;4995415;28;20229;-69
2023/04/29 10:35:01;;;;;;;4.45;4.07;;;20.50;99.90;;;;;;4995751;28;20319;-69
2023/04/29 10:37:28;;;;;;;4.15;3.85;;;20.50;99.90;;;;;;4998585;28;20216;-69
2023/04/29 10:40:14;;;;;;;4.03;3.63;;;20.40;99.90;;;;;;4997936;28;20641;-68
2023/04/29 10:42:45;;;;;;;4.00;3.60;;;20.40;99.90;;;;;;4996878;28;20233;-70
2023/04/29 10:45:23;;;;;;;4.82;4.43;;;20.40;99.90;;;;;;4981836;28;20205;-69
2023/04/29 10:48:14;;;;;;;6.40;3.88;;;20.50;99.90;;;;;;5001480;28;20743;-69
2023/04/29 10:51:03;;;;;;;4.40;4.00;;;20.50;99.90;;;;;;4998340;28;20215;-68
2023/04/29 10:53:31;;;;;;;4.13;3.63;;;20.40;99.90;;;;;;4996681;28;20230;-68
2023/04/29 10:56:05;;;;;;;3.88;3.58;;;20.40;99.90;;;;;;5006550;28;20227;-68
2023/04/29 10:58:43;;;;;;;3.30;3.03;;;20.50;99.90;;;;;;4999667;28;20255;-69
2023/04/29 11:01:12;;;;;;;4.07;3.70;;;20.50;99.90;;;;;;4970906;28;20717;-68
2023/04/29 11:03:58;;;;;;;4.57;3.60;;;20.60;99.90;;;;;;5000635;28;20307;-68
2023/04/29 11:06:26;;;;;;;3.60;3.30;;;20.60;99.90;;;;;;5000831;28;20204;-67
2023/04/29 11:09:04;;;;;;;3.72;3.40;;;20.50;99.90;;;;;;4997932;28;20213;-68
2023/04/29 11:11:59;;;;;;;3.13;2.78;;;20.80;99.90;;;;;;4998018;28;20339;-69
2023/04/29 11:14:29;;;;;;;3.38;2.72;;;21.00;99.90;;;;;;4997299;28;20212;-68
2023/04/29 11:16:59;;;;;;;3.25;2.38;;;21.00;99.90;;;;;;4994384;28;20215;-67
2023/04/29 11:19:31;;;;;;;3.63;2.90;;;21.30;99.90;;;;;;4994450;28;20211;-67
2023/04/29 11:22:24;;;;;;;2.60;2.40;;;21.70;99.90;;;;;;4997693;28;20745;-69
2023/04/29 11:24:54;;;;;;;2.92;2.70;;;21.90;99.90;;;;;;4994336;28;20258;-70
2023/04/29 11:27:26;;;;;;;2.47;2.28;;;22.10;99.90;;;;;;4999870;28;20204;-70
2023/04/29 11:29:58;;;;;;;2.58;2.40;;;22.20;99.90;;;;;;4994253;28;20227;-70
2023/04/29 11:32:25;;;;;;;2.50;2.30;;;22.30;99.90;;;;;;4996059;28;20216;-70
2023/04/29 11:34:53;;;;;;;2.92;2.38;;;22.40;99.90;;;;;;5001090;28;20238;-70
2023/04/29 11:37:27;;;;;;;2.80;2.22;;;22.60;99.90;;;;;;4994599;28;20284;-68
2023/04/29 11:40:00;;;;;;;4.63;2.55;;;22.70;99.90;;;;;;5001752;28;20291;-68
2023/04/29 11:42:29;;;;;;;2.70;2.50;;;23.00;99.90;;;;;;4998333;28;20614;-68
2023/04/29 11:44:58;;;;;;;2.95;2.70;;;23.10;99.90;;;;;;4995969;28;20240;-69
2023/04/29 11:47:28;;;;;;;2.60;2.40;;;23.10;99.90;;;;;;5001396;28;20204;-69
2023/04/29 11:50:03;;;;;;;2.40;2.20;;;23.10;99.90;;;;;;4997799;28;20220;-68
2023/04/29 11:52:30;;;;;;;3.70;2.30;;;23.20;99.90;;;;;;4999112;28;20657;-68
2023/04/29 11:54:58;;;;;;;3.28;2.97;;;23.20;99.90;;;;;;4997908;28;20204;-69
2023/04/29 11:57:26;;;;;;;3.13;2.80;;;23.20;99.90;;;;;;5002568;28;20211;-68
2023/04/29 11:59:54;;;;;;;2.80;2.53;;;23.00;99.90;;;;;;4992081;28;20300;-69
2023/04/29 12:02:22;;;;;;;2.63;2.42;;;23.00;99.90;;;;;;4995965;28;20244;-69
2023/04/29 12:04:49;;;;;;;2.72;2.47;;;23.10;99.90;;;;;;4998309;28;20208;-70
2023/04/29 12:07:17;;;;;;;2.90;2.70;;;23.30;99.90;;;;;;4984306;28;20204;-69
2023/04/29 12:09:45;;;;;;;2.75;2.55;;;23.30;99.90;;;;;;4998628;28;20697;-69
2023/04/29 12:12:14;;;;;;;2.88;2.63;;;23.40;99.90;;;;;;4982328;28;20221;-70
2023/04/29 12:14:42;;;;;;;2.75;2.25;;;23.30;99.90;;;;;;4997961;28;20295;-69
2023/04/29 12:17:11;;;;;;;3.00;2.70;;;23.60;99.90;;;;;;4979592;28;20292;-68
2023/04/29 12:19:40;;;;;;;3.60;2.22;;;23.80;99.90;;;;;;5000861;28;20224;-69
2023/04/29 12:22:08;;;;;;;3.97;2.90;;;23.80;99.90;;;;;;4996895;28;20228;-70
2023/04/29 12:24:36;;;;;;;3.20;2.40;;;23.80;99.90;;;;;;4992135;28;20209;-69
2023/04/29 12:27:04;;;;;;;2.70;2.50;;;23.80;99.90;;;;;;4996899;28;20205;-69
2023/04/29 12:29:32;;;;;;;2.72;2.50;;;23.80;99.90;;;;;;4998483;28;20201;-69
2023/04/29 12:31:59;;;;;;;4.25;2.20;;;23.80;99.90;;;;;;5000615;28;20304;-70
2023/04/29 12:34:28;;;;;;;5.53;2.70;;;24.10;99.90;;;;;;5002230;28;20243;-69
2023/04/29 12:36:56;;;;;;;3.03;2.60;;;24.10;99.90;;;;;;4998508;28;20296;-69
2023/04/29 12:39:24;;;;;;;2.90;2.60;;;24.10;99.90;;;;;;4998973;28;20243;-69
2023/04/29 12:41:56;;;;;;;2.63;2.42;;;24.10;99.90;;;;;;4999010;28;20303;-69
2023/04/29 12:44:23;;;;;;;2.40;2.20;;;24.00;99.90;;;;;;4998868;28;20211;-69
2023/04/29 12:46:52;;;;;;;2.45;2.10;;;24.10;99.90;;;;;;5001618;28;20295;-69
2023/04/29 12:49:20;;;;;;;3.85;2.30;;;24.20;99.90;;;;;;4967693;28;20212;-69
2023/04/29 12:51:48;;;;;;;3.30;2.05;;;24.20;99.90;;;;;;5003804;28;20204;-69
2023/04/29 12:54:15;;;;;;;2.20;2.00;;;24.30;99.90;;;;;;4999576;28;20236;-69
2023/04/29 12:56:43;;;;;;;2.10;2.00;;;24.40;99.90;;;;;;5006285;28;20581;-69